Kavarna, Bulgaria
Current Conditions -  °F | °C
As of 8:00 PM on Thursday 30 Oct 2014 (Local Time) from LBWN Reporting Station
Broken Clouds Broken Clouds  
Wind Chill: 42°   Ceiling: 2300
Heat Index: 46°   Visibility: 6mi
Dew Point: 43°   Wind: 9mph
Humidity: 87%   Direction: 300°WNW
Pressure: 30.15"   Gusts: 20mph
Location:  43.44°N, 28.34°E
Report Text: LBWN 301700Z 30004G09MPS 260V340 9999 FEW015 BKN023 08/06 Q1021 NOSIG
Loading
Personal Weather Stations






























Interactive Weather Map
Tropical Storm Tracking
New forecast layout! Learn more

10-Day Weather Forecast

Advertisements
Track Severe Weather on mobile